Sugar Grove, Pennsylvania
Current Conditions -  °F | °C
As of 1:15 PM on Sunday 25 Jan 2015 (Local Time) from KJHW Reporting Station
Overcast Overcast  
Wind Chill: 10°   Ceiling: 1800
Heat Index: 19°   Visibility: 10mi
Dew Point: 10°   Wind: 7mph
Humidity: 68%   Direction: 350°N
Pressure: 29.8"   Gusts: NA
Location:  41.98°N, 79.34°W
Report Text: KJHW 251815Z 35006KT 10SM OVC018 M07/M12 A2980 RMK AO1
Loading
Personal Weather Stations






























Interactive Weather Map New forecast layout! Learn more

10-Day Weather Forecast

Advertisements
Track Severe Weather on mobile